sensor_id;sensor_type;location;lat;lon;timestamp;P1;durP1;ratioP1;P2;durP2;ratioP2
19788;SDS011;10054;59.332;18.244;2023-01-08T00:01:40;24.13;;;8.43;;
19788;SDS011;10054;59.332;18.244;2023-01-08T00:04:09;21.57;;;9.40;;
19788;SDS011;10054;59.332;18.244;2023-01-08T00:06:39;24.77;;;9.27;;
19788;SDS011;10054;59.332;18.244;2023-01-08T00:09:08;28.33;;;8.10;;
19788;SDS011;10054;59.332;18.244;2023-01-08T00:11:38;34.00;;;10.63;;
19788;SDS011;10054;59.332;18.244;2023-01-08T00:14:06;40.50;;;9.90;;
19788;SDS011;10054;59.332;18.244;2023-01-08T00:16:35;20.23;;;9.43;;
19788;SDS011;10054;59.332;18.244;2023-01-08T00:19:04;28.33;;;9.33;;
19788;SDS011;10054;59.332;18.244;2023-01-08T00:21:34;26.03;;;10.23;;
19788;SDS011;10054;59.332;18.244;2023-01-08T00:24:03;31.77;;;9.90;;
19788;SDS011;10054;59.332;18.244;2023-01-08T00:26:32;16.50;;;8.13;;
19788;SDS011;10054;59.332;18.244;2023-01-08T00:29:01;15.53;;;8.57;;
19788;SDS011;10054;59.332;18.244;2023-01-08T00:31:30;22.30;;;8.83;;
19788;SDS011;10054;59.332;18.244;2023-01-08T00:33:59;16.97;;;8.47;;
19788;SDS011;10054;59.332;18.244;2023-01-08T00:36:28;23.80;;;9.20;;
19788;SDS011;10054;59.332;18.244;2023-01-08T00:38:57;26.50;;;9.93;;
19788;SDS011;10054;59.332;18.244;2023-01-08T00:41:26;26.40;;;10.60;;
19788;SDS011;10054;59.332;18.244;2023-01-08T00:43:55;18.67;;;9.10;;
19788;SDS011;10054;59.332;18.244;2023-01-08T00:46:24;25.67;;;9.80;;
19788;SDS011;10054;59.332;18.244;2023-01-08T00:48:53;19.53;;;9.67;;
19788;SDS011;10054;59.332;18.244;2023-01-08T00:51:23;17.70;;;8.90;;
19788;SDS011;10054;59.332;18.244;2023-01-08T00:53:52;17.33;;;9.60;;
19788;SDS011;10054;59.332;18.244;2023-01-08T00:56:21;19.77;;;9.73;;
19788;SDS011;10054;59.332;18.244;2023-01-08T00:58:50;135.30;;;17.13;;
19788;SDS011;10054;59.332;18.244;2023-01-08T01:01:18;21.10;;;8.70;;
19788;SDS011;10054;59.332;18.244;2023-01-08T01:03:47;19.13;;;8.47;;
19788;SDS011;10054;59.332;18.244;2023-01-08T01:06:16;15.90;;;8.03;;
19788;SDS011;10054;59.332;18.244;2023-01-08T01:08:45;13.13;;;7.67;;
19788;SDS011;10054;59.332;18.244;2023-01-08T01:11:18;17.57;;;8.83;;
19788;SDS011;10054;59.332;18.244;2023-01-08T01:13:51;12.27;;;7.40;;
19788;SDS011;10054;59.332;18.244;2023-01-08T01:16:22;12.20;;;6.27;;
19788;SDS011;10054;59.332;18.244;2023-01-08T01:18:52;12.27;;;7.00;;
19788;SDS011;10054;59.332;18.244;2023-01-08T01:21:26;11.13;;;6.67;;
19788;SDS011;10054;59.332;18.244;2023-01-08T01:23:57;14.30;;;6.67;;
19788;SDS011;10054;59.332;18.244;2023-01-08T01:26:27;11.63;;;6.43;;
19788;SDS011;10054;59.332;18.244;2023-01-08T01:28:57;11.27;;;6.07;;
19788;SDS011;10054;59.332;18.244;2023-01-08T01:31:27;12.40;;;5.63;;
19788;SDS011;10054;59.332;18.244;2023-01-08T01:33:57;12.63;;;5.83;;
19788;SDS011;10054;59.332;18.244;2023-01-08T01:36:26;9.33;;;5.47;;
19788;SDS011;10054;59.332;18.244;2023-01-08T01:38:55;9.57;;;5.40;;
19788;SDS011;10054;59.332;18.244;2023-01-08T01:41:28;8.40;;;5.40;;
19788;SDS011;10054;59.332;18.244;2023-01-08T01:46:57;8.77;;;5.30;;
19788;SDS011;10054;59.332;18.244;2023-01-08T01:49:28;9.43;;;5.10;;
19788;SDS011;10054;59.332;18.244;2023-01-08T01:52:00;7.07;;;5.20;;
19788;SDS011;10054;59.332;18.244;2023-01-08T01:54:31;10.23;;;5.13;;
19788;SDS011;10054;59.332;18.244;2023-01-08T01:57:01;49.27;;;7.57;;
19788;SDS011;10054;59.332;18.244;2023-01-08T01:59:31;14.93;;;6.83;;
19788;SDS011;10054;59.332;18.244;2023-01-08T02:02:00;9.80;;;5.40;;
19788;SDS011;10054;59.332;18.244;2023-01-08T02:04:29;10.60;;;5.73;;
19788;SDS011;10054;59.332;18.244;2023-01-08T02:07:07;7.93;;;5.10;;
19788;SDS011;10054;59.332;18.244;2023-01-08T02:09:51;7.77;;;4.97;;
19788;SDS011;10054;59.332;18.244;2023-01-08T02:15:12;8.07;;;5.10;;
19788;SDS011;10054;59.332;18.244;2023-01-08T02:20:38;8.57;;;5.40;;
19788;SDS011;10054;59.332;18.244;2023-01-08T02:31:43;5.13;;;4.17;;
19788;SDS011;10054;59.332;18.244;2023-01-08T02:34:13;5.40;;;4.70;;
19788;SDS011;10054;59.332;18.244;2023-01-08T02:36:42;6.53;;;4.47;;
19788;SDS011;10054;59.332;18.244;2023-01-08T02:47:40;7.97;;;4.53;;
19788;SDS011;10054;59.332;18.244;2023-01-08T02:50:20;8.83;;;4.33;;
19788;SDS011;10054;59.332;18.244;2023-01-08T02:53:00;5.53;;;4.00;;
19788;SDS011;10054;59.332;18.244;2023-01-08T02:55:45;5.90;;;3.70;;
19788;SDS011;10054;59.332;18.244;2023-01-08T02:58:14;6.10;;;4.00;;
19788;SDS011;10054;59.332;18.244;2023-01-08T03:00:43;4.50;;;3.43;;
19788;SDS011;10054;59.332;18.244;2023-01-08T03:03:19;6.93;;;3.73;;
19788;SDS011;10054;59.332;18.244;2023-01-08T03:05:48;4.27;;;3.27;;
19788;SDS011;10054;59.332;18.244;2023-01-08T03:08:17;5.00;;;3.23;;
19788;SDS011;10054;59.332;18.244;2023-01-08T03:10:48;5.90;;;3.07;;
19788;SDS011;10054;59.332;18.244;2023-01-08T03:13:23;5.03;;;3.00;;
19788;SDS011;10054;59.332;18.244;2023-01-08T03:15:54;2.87;;;2.53;;
19788;SDS011;10054;59.332;18.244;2023-01-08T03:18:25;4.87;;;3.57;;
19788;SDS011;10054;59.332;18.244;2023-01-08T03:21:00;6.10;;;3.27;;
19788;SDS011;10054;59.332;18.244;2023-01-08T03:23:31;6.10;;;3.23;;
19788;SDS011;10054;59.332;18.244;2023-01-08T03:26:03;32.93;;;4.70;;
19788;SDS011;10054;59.332;18.244;2023-01-08T03:28:34;3.57;;;2.70;;
19788;SDS011;10054;59.332;18.244;2023-01-08T03:31:04;2.53;;;2.33;;
19788;SDS011;10054;59.332;18.244;2023-01-08T03:33:34;4.37;;;2.77;;
19788;SDS011;10054;59.332;18.244;2023-01-08T03:36:05;4.20;;;2.60;;
19788;SDS011;10054;59.332;18.244;2023-01-08T03:38:46;4.93;;;2.40;;
19788;SDS011;10054;59.332;18.244;2023-01-08T03:41:13;2.63;;;2.43;;
19788;SDS011;10054;59.332;18.244;2023-01-08T03:43:44;3.17;;;2.50;;
19788;SDS011;10054;59.332;18.244;2023-01-08T03:46:14;3.00;;;1.87;;
19788;SDS011;10054;59.332;18.244;2023-01-08T03:48:44;3.10;;;2.20;;
19788;SDS011;10054;59.332;18.244;2023-01-08T03:51:14;3.37;;;2.50;;
19788;SDS011;10054;59.332;18.244;2023-01-08T03:53:44;3.27;;;2.03;;
19788;SDS011;10054;59.332;18.244;2023-01-08T03:56:13;3.27;;;1.80;;
19788;SDS011;10054;59.332;18.244;2023-01-08T03:58:43;2.83;;;1.90;;
19788;SDS011;10054;59.332;18.244;2023-01-08T04:01:11;2.57;;;1.80;;
19788;SDS011;10054;59.332;18.244;2023-01-08T04:03:40;1.93;;;1.80;;
19788;SDS011;10054;59.332;18.244;2023-01-08T04:06:09;2.37;;;1.80;;
19788;SDS011;10054;59.332;18.244;2023-01-08T04:08:38;2.33;;;2.10;;
19788;SDS011;10054;59.332;18.244;2023-01-08T04:11:07;3.00;;;2.00;;
19788;SDS011;10054;59.332;18.244;2023-01-08T04:13:36;2.90;;;2.10;;
19788;SDS011;10054;59.332;18.244;2023-01-08T04:16:05;3.40;;;2.00;;
19788;SDS011;10054;59.332;18.244;2023-01-08T04:18:34;4.07;;;2.13;;
19788;SDS011;10054;59.332;18.244;2023-01-08T04:21:03;18.30;;;3.20;;
19788;SDS011;10054;59.332;18.244;2023-01-08T04:23:32;11.53;;;2.87;;
19788;SDS011;10054;59.332;18.244;2023-01-08T04:26:04;7.80;;;2.40;;
19788;SDS011;10054;59.332;18.244;2023-01-08T04:28:34;2.10;;;1.90;;
19788;SDS011;10054;59.332;18.244;2023-01-08T04:31:06;3.33;;;2.10;;
19788;SDS011;10054;59.332;18.244;2023-01-08T04:33:36;2.90;;;1.73;;
19788;SDS011;10054;59.332;18.244;2023-01-08T04:36:05;1.83;;;1.50;;
19788;SDS011;10054;59.332;18.244;2023-01-08T04:38:34;2.10;;;1.90;;
19788;SDS011;10054;59.332;18.244;2023-01-08T04:41:03;1.67;;;1.57;;
19788;SDS011;10054;59.332;18.244;2023-01-08T04:43:32;1.70;;;1.47;;
19788;SDS011;10054;59.332;18.244;2023-01-08T04:46:01;2.33;;;1.73;;
19788;SDS011;10054;59.332;18.244;2023-01-08T04:48:35;2.13;;;1.70;;
19788;SDS011;10054;59.332;18.244;2023-01-08T04:51:04;2.20;;;1.57;;
19788;SDS011;10054;59.332;18.244;2023-01-08T04:53:34;3.93;;;1.60;;
19788;SDS011;10054;59.332;18.244;2023-01-08T04:56:06;2.53;;;1.50;;
19788;SDS011;10054;59.332;18.244;2023-01-08T04:58:37;1.90;;;1.57;;
19788;SDS011;10054;59.332;18.244;2023-01-08T05:01:15;2.20;;;1.40;;
19788;SDS011;10054;59.332;18.244;2023-01-08T05:03:41;1.30;;;1.20;;
19788;SDS011;10054;59.332;18.244;2023-01-08T05:06:10;2.10;;;1.50;;
19788;SDS011;10054;59.332;18.244;2023-01-08T05:08:39;3.70;;;1.63;;
19788;SDS011;10054;59.332;18.244;2023-01-08T05:11:07;1.77;;;1.30;;
19788;SDS011;10054;59.332;18.244;2023-01-08T05:13:36;4.00;;;1.70;;
19788;SDS011;10054;59.332;18.244;2023-01-08T05:16:05;122.87;;;6.00;;
19788;SDS011;10054;59.332;18.244;2023-01-08T05:18:34;109.20;;;5.77;;
19788;SDS011;10054;59.332;18.244;2023-01-08T05:21:03;2.17;;;1.30;;
19788;SDS011;10054;59.332;18.244;2023-01-08T05:23:32;1.10;;;1.00;;
19788;SDS011;10054;59.332;18.244;2023-01-08T05:26:02;1.40;;;1.30;;
19788;SDS011;10054;59.332;18.244;2023-01-08T05:28:33;1.30;;;1.10;;
19788;SDS011;10054;59.332;18.244;2023-01-08T05:31:02;1.20;;;1.10;;
19788;SDS011;10054;59.332;18.244;2023-01-08T05:33:30;1.73;;;1.40;;
19788;SDS011;10054;59.332;18.244;2023-01-08T05:35:59;1.77;;;1.20;;
19788;SDS011;10054;59.332;18.244;2023-01-08T05:38:30;1.40;;;1.03;;
19788;SDS011;10054;59.332;18.244;2023-01-08T05:40:58;1.43;;;1.30;;
19788;SDS011;10054;59.332;18.244;2023-01-08T05:43:27;1.77;;;1.40;;
19788;SDS011;10054;59.332;18.244;2023-01-08T05:46:00;1.73;;;1.20;;
19788;SDS011;10054;59.332;18.244;2023-01-08T05:48:31;1.53;;;1.10;;
19788;SDS011;10054;59.332;18.244;2023-01-08T05:51:01;2.57;;;1.43;;
19788;SDS011;10054;59.332;18.244;2023-01-08T05:53:31;1.60;;;1.50;;
19788;SDS011;10054;59.332;18.244;2023-01-08T05:56:02;2.20;;;1.37;;
19788;SDS011;10054;59.332;18.244;2023-01-08T05:58:33;1.60;;;1.40;;
19788;SDS011;10054;59.332;18.244;2023-01-08T06:01:07;1.50;;;1.40;;
19788;SDS011;10054;59.332;18.244;2023-01-08T06:03:33;1.60;;;1.50;;
19788;SDS011;10054;59.332;18.244;2023-01-08T06:06:02;1.50;;;1.40;;
19788;SDS011;10054;59.332;18.244;2023-01-08T06:08:33;2.33;;;1.30;;
19788;SDS011;10054;59.332;18.244;2023-01-08T06:11:03;3.40;;;1.60;;
19788;SDS011;10054;59.332;18.244;2023-01-08T06:13:34;1.83;;;1.57;;
19788;SDS011;10054;59.332;18.244;2023-01-08T06:16:04;1.83;;;1.47;;
19788;SDS011;10054;59.332;18.244;2023-01-08T06:18:33;2.20;;;1.20;;
19788;SDS011;10054;59.332;18.244;2023-01-08T06:21:03;1.40;;;1.30;;
19788;SDS011;10054;59.332;18.244;2023-01-08T06:23:32;2.87;;;1.20;;
19788;SDS011;10054;59.332;18.244;2023-01-08T06:26:01;2.07;;;1.30;;
19788;SDS011;10054;59.332;18.244;2023-01-08T06:28:32;2.03;;;1.50;;
19788;SDS011;10054;59.332;18.244;2023-01-08T06:31:01;2.20;;;1.77;;
19788;SDS011;10054;59.332;18.244;2023-01-08T06:33:30;1.83;;;1.30;;
19788;SDS011;10054;59.332;18.244;2023-01-08T06:35:59;18.53;;;2.37;;
19788;SDS011;10054;59.332;18.244;2023-01-08T06:38:30;363.57;;;13.23;;
19788;SDS011;10054;59.332;18.244;2023-01-08T06:41:04;1.83;;;1.50;;
19788;SDS011;10054;59.332;18.244;2023-01-08T06:43:34;3.53;;;1.70;;
19788;SDS011;10054;59.332;18.244;2023-01-08T06:46:04;3.27;;;1.53;;
19788;SDS011;10054;59.332;18.244;2023-01-08T06:48:34;3.13;;;1.90;;
19788;SDS011;10054;59.332;18.244;2023-01-08T06:51:03;2.13;;;1.70;;
19788;SDS011;10054;59.332;18.244;2023-01-08T06:53:32;1.90;;;1.70;;
19788;SDS011;10054;59.332;18.244;2023-01-08T06:56:02;2.37;;;1.80;;
19788;SDS011;10054;59.332;18.244;2023-01-08T06:58:33;3.33;;;1.70;;
19788;SDS011;10054;59.332;18.244;2023-01-08T07:01:02;1.70;;;1.50;;
19788;SDS011;10054;59.332;18.244;2023-01-08T07:03:31;2.53;;;1.70;;
19788;SDS011;10054;59.332;18.244;2023-01-08T07:06:01;2.33;;;1.70;;
19788;SDS011;10054;59.332;18.244;2023-01-08T07:08:29;2.00;;;1.70;;
19788;SDS011;10054;59.332;18.244;2023-01-08T07:11:01;3.23;;;1.67;;
19788;SDS011;10054;59.332;18.244;2023-01-08T07:13:34;2.03;;;1.70;;
19788;SDS011;10054;59.332;18.244;2023-01-08T07:16:06;3.33;;;1.60;;
19788;SDS011;10054;59.332;18.244;2023-01-08T07:18:36;1.77;;;1.50;;
19788;SDS011;10054;59.332;18.244;2023-01-08T07:21:06;2.47;;;1.60;;
19788;SDS011;10054;59.332;18.244;2023-01-08T07:23:35;2.27;;;1.70;;
19788;SDS011;10054;59.332;18.244;2023-01-08T07:26:04;2.23;;;1.90;;
19788;SDS011;10054;59.332;18.244;2023-01-08T07:28:34;2.20;;;1.90;;
19788;SDS011;10054;59.332;18.244;2023-01-08T07:31:03;2.03;;;1.57;;
19788;SDS011;10054;59.332;18.244;2023-01-08T07:33:33;1.87;;;1.77;;
19788;SDS011;10054;59.332;18.244;2023-01-08T07:36:03;1.50;;;1.40;;
19788;SDS011;10054;59.332;18.244;2023-01-08T07:38:33;2.33;;;1.90;;
19788;SDS011;10054;59.332;18.244;2023-01-08T07:41:01;2.33;;;1.90;;
19788;SDS011;10054;59.332;18.244;2023-01-08T07:43:30;2.10;;;1.83;;
19788;SDS011;10054;59.332;18.244;2023-01-08T07:46:01;3.07;;;2.10;;
19788;SDS011;10054;59.332;18.244;2023-01-08T07:48:30;5.03;;;2.97;;
19788;SDS011;10054;59.332;18.244;2023-01-08T07:51:06;5.03;;;2.67;;
19788;SDS011;10054;59.332;18.244;2023-01-08T07:53:35;3.50;;;3.10;;
19788;SDS011;10054;59.332;18.244;2023-01-08T07:56:06;4.43;;;2.70;;
19788;SDS011;10054;59.332;18.244;2023-01-08T07:58:36;4.90;;;2.97;;
19788;SDS011;10054;59.332;18.244;2023-01-08T08:01:07;2.63;;;2.30;;
19788;SDS011;10054;59.332;18.244;2023-01-08T08:03:37;4.50;;;2.90;;
19788;SDS011;10054;59.332;18.244;2023-01-08T08:06:06;4.30;;;2.90;;
19788;SDS011;10054;59.332;18.244;2023-01-08T08:08:35;4.70;;;3.33;;
19788;SDS011;10054;59.332;18.244;2023-01-08T08:11:04;5.87;;;3.30;;
19788;SDS011;10054;59.332;18.244;2023-01-08T08:13:32;5.83;;;4.20;;
19788;SDS011;10054;59.332;18.244;2023-01-08T08:16:02;7.07;;;4.43;;
19788;SDS011;10054;59.332;18.244;2023-01-08T08:18:31;7.37;;;4.50;;
19788;SDS011;10054;59.332;18.244;2023-01-08T08:21:00;9.27;;;4.67;;
19788;SDS011;10054;59.332;18.244;2023-01-08T08:23:29;6.73;;;3.73;;
19788;SDS011;10054;59.332;18.244;2023-01-08T08:25:58;9.30;;;4.60;;
19788;SDS011;10054;59.332;18.244;2023-01-08T08:28:28;8.63;;;4.67;;
19788;SDS011;10054;59.332;18.244;2023-01-08T08:30:56;6.83;;;4.47;;
19788;SDS011;10054;59.332;18.244;2023-01-08T08:33:25;7.60;;;4.57;;
19788;SDS011;10054;59.332;18.244;2023-01-08T08:35:54;7.43;;;4.47;;
19788;SDS011;10054;59.332;18.244;2023-01-08T08:38:23;766.67;;;37.37;;
19788;SDS011;10054;59.332;18.244;2023-01-08T08:40:52;341.93;;;17.60;;
19788;SDS011;10054;59.332;18.244;2023-01-08T08:43:21;5.40;;;4.23;;
19788;SDS011;10054;59.332;18.244;2023-01-08T08:45:49;6.30;;;4.40;;
19788;SDS011;10054;59.332;18.244;2023-01-08T08:48:18;5.37;;;3.63;;
19788;SDS011;10054;59.332;18.244;2023-01-08T08:50:47;4.43;;;3.37;;
19788;SDS011;10054;59.332;18.244;2023-01-08T08:53:16;5.00;;;3.17;;
19788;SDS011;10054;59.332;18.244;2023-01-08T08:55:44;4.10;;;3.03;;
19788;SDS011;10054;59.332;18.244;2023-01-08T08:58:13;3.63;;;2.83;;
19788;SDS011;10054;59.332;18.244;2023-01-08T09:00:42;4.47;;;2.63;;
19788;SDS011;10054;59.332;18.244;2023-01-08T09:03:14;3.90;;;2.67;;
19788;SDS011;10054;59.332;18.244;2023-01-08T09:05:43;3.47;;;2.70;;
19788;SDS011;10054;59.332;18.244;2023-01-08T09:08:12;4.20;;;3.07;;
19788;SDS011;10054;59.332;18.244;2023-01-08T09:10:41;7.67;;;3.50;;
19788;SDS011;10054;59.332;18.244;2023-01-08T09:13:10;6.67;;;4.13;;
19788;SDS011;10054;59.332;18.244;2023-01-08T09:15:39;16.47;;;5.43;;
19788;SDS011;10054;59.332;18.244;2023-01-08T09:18:07;13.70;;;5.27;;
19788;SDS011;10054;59.332;18.244;2023-01-08T09:20:36;21.27;;;6.00;;
19788;SDS011;10054;59.332;18.244;2023-01-08T09:23:06;25.37;;;6.47;;
19788;SDS011;10054;59.332;18.244;2023-01-08T09:25:36;35.30;;;7.50;;
19788;SDS011;10054;59.332;18.244;2023-01-08T09:28:06;37.30;;;7.43;;
19788;SDS011;10054;59.332;18.244;2023-01-08T09:30:38;44.27;;;8.43;;
19788;SDS011;10054;59.332;18.244;2023-01-08T09:33:08;61.10;;;9.50;;
19788;SDS011;10054;59.332;18.244;2023-01-08T09:35:36;49.90;;;9.63;;
19788;SDS011;10054;59.332;18.244;2023-01-08T09:38:05;44.20;;;11.40;;
19788;SDS011;10054;59.332;18.244;2023-01-08T09:40:36;33.67;;;8.60;;
19788;SDS011;10054;59.332;18.244;2023-01-08T09:43:06;34.57;;;9.13;;
19788;SDS011;10054;59.332;18.244;2023-01-08T09:45:37;41.13;;;10.10;;
19788;SDS011;10054;59.332;18.244;2023-01-08T09:48:07;43.67;;;10.53;;
19788;SDS011;10054;59.332;18.244;2023-01-08T09:50:40;68.20;;;11.57;;
19788;SDS011;10054;59.332;18.244;2023-01-08T09:53:15;65.10;;;13.30;;
19788;SDS011;10054;59.332;18.244;2023-01-08T09:55:41;79.00;;;13.33;;
19788;SDS011;10054;59.332;18.244;2023-01-08T09:58:33;119.00;;;13.70;;
19788;SDS011;10054;59.332;18.244;2023-01-08T10:00:53;159.70;;;15.80;;
19788;SDS011;10054;59.332;18.244;2023-01-08T10:03:24;194.73;;;16.03;;
19788;SDS011;10054;59.332;18.244;2023-01-08T10:05:53;156.47;;;15.47;;
19788;SDS011;10054;59.332;18.244;2023-01-08T10:08:22;139.57;;;14.63;;
19788;SDS011;10054;59.332;18.244;2023-01-08T10:10:51;108.40;;;14.47;;
19788;SDS011;10054;59.332;18.244;2023-01-08T10:13:20;78.40;;;13.30;;
19788;SDS011;10054;59.332;18.244;2023-01-08T10:15:50;127.43;;;14.50;;
19788;SDS011;10054;59.332;18.244;2023-01-08T10:18:19;158.80;;;15.93;;
19788;SDS011;10054;59.332;18.244;2023-01-08T10:20:52;117.60;;;14.20;;
19788;SDS011;10054;59.332;18.244;2023-01-08T10:23:21;105.47;;;14.33;;
19788;SDS011;10054;59.332;18.244;2023-01-08T10:28:26;118.90;;;15.57;;
19788;SDS011;10054;59.332;18.244;2023-01-08T10:31:03;148.13;;;15.60;;
19788;SDS011;10054;59.332;18.244;2023-01-08T10:33:38;170.00;;;16.87;;
19788;SDS011;10054;59.332;18.244;2023-01-08T10:36:09;77.67;;;13.57;;
19788;SDS011;10054;59.332;18.244;2023-01-08T10:38:51;151.23;;;16.80;;
19788;SDS011;10054;59.332;18.244;2023-01-08T10:41:24;87.53;;;13.80;;
19788;SDS011;10054;59.332;18.244;2023-01-08T10:43:59;126.43;;;15.03;;
19788;SDS011;10054;59.332;18.244;2023-01-08T10:46:42;147.67;;;17.33;;
19788;SDS011;10054;59.332;18.244;2023-01-08T10:49:23;109.83;;;14.77;;
19788;SDS011;10054;59.332;18.244;2023-01-08T10:51:49;90.57;;;15.07;;
19788;SDS011;10054;59.332;18.244;2023-01-08T10:57:00;176.87;;;17.30;;
19788;SDS011;10054;59.332;18.244;2023-01-08T10:59:30;92.03;;;15.53;;
19788;SDS011;10054;59.332;18.244;2023-01-08T11:01:58;108.50;;;16.13;;
19788;SDS011;10054;59.332;18.244;2023-01-08T11:04:31;87.20;;;16.40;;
19788;SDS011;10054;59.332;18.244;2023-01-08T11:07:05;108.47;;;17.70;;
19788;SDS011;10054;59.332;18.244;2023-01-08T11:09:38;65.13;;;14.77;;
19788;SDS011;10054;59.332;18.244;2023-01-08T11:12:30;71.17;;;15.40;;
19788;SDS011;10054;59.332;18.244;2023-01-08T11:15:03;92.33;;;16.57;;
19788;SDS011;10054;59.332;18.244;2023-01-08T11:17:33;107.80;;;17.40;;
19788;SDS011;10054;59.332;18.244;2023-01-08T11:20:05;123.20;;;19.37;;
19788;SDS011;10054;59.332;18.244;2023-01-08T11:22:36;150.17;;;19.10;;
19788;SDS011;10054;59.332;18.244;2023-01-08T11:25:07;134.70;;;18.33;;
19788;SDS011;10054;59.332;18.244;2023-01-08T11:27:38;91.90;;;16.20;;
19788;SDS011;10054;59.332;18.244;2023-01-08T11:30:22;118.23;;;19.03;;
19788;SDS011;10054;59.332;18.244;2023-01-08T11:32:57;104.43;;;18.37;;
19788;SDS011;10054;59.332;18.244;2023-01-08T11:35:40;89.57;;;16.90;;
19788;SDS011;10054;59.332;18.244;2023-01-08T11:38:19;97.03;;;17.20;;
19788;SDS011;10054;59.332;18.244;2023-01-08T11:43:31;95.87;;;16.33;;
19788;SDS011;10054;59.332;18.244;2023-01-08T11:46:16;86.87;;;17.63;;
19788;SDS011;10054;59.332;18.244;2023-01-08T11:57:42;194.47;;;20.07;;
19788;SDS011;10054;59.332;18.244;2023-01-08T12:06:21;140.97;;;18.67;;
19788;SDS011;10054;59.332;18.244;2023-01-08T12:08:58;211.23;;;21.77;;
19788;SDS011;10054;59.332;18.244;2023-01-08T12:11:51;1518.70;;;78.80;;
19788;SDS011;10054;59.332;18.244;2023-01-08T12:15:00;187.57;;;21.07;;
19788;SDS011;10054;59.332;18.244;2023-01-08T12:20:35;101.40;;;19.47;;
19788;SDS011;10054;59.332;18.244;2023-01-08T12:29:04;147.17;;;19.77;;
19788;SDS011;10054;59.332;18.244;2023-01-08T12:31:48;130.20;;;18.30;;
19788;SDS011;10054;59.332;18.244;2023-01-08T12:34:32;234.97;;;25.03;;
19788;SDS011;10054;59.332;18.244;2023-01-08T12:36:59;97.67;;;17.70;;
19788;SDS011;10054;59.332;18.244;2023-01-08T12:39:31;75.50;;;16.73;;
19788;SDS011;10054;59.332;18.244;2023-01-08T12:42:06;74.93;;;18.17;;
19788;SDS011;10054;59.332;18.244;2023-01-08T12:44:41;141.03;;;20.30;;
19788;SDS011;10054;59.332;18.244;2023-01-08T12:47:14;86.30;;;16.60;;
19788;SDS011;10054;59.332;18.244;2023-01-08T12:49:49;80.73;;;16.73;;
19788;SDS011;10054;59.332;18.244;2023-01-08T12:52:15;96.80;;;17.93;;
19788;SDS011;10054;59.332;18.244;2023-01-08T12:55:01;107.03;;;18.63;;
19788;SDS011;10054;59.332;18.244;2023-01-08T12:57:37;99.43;;;17.33;;
19788;SDS011;10054;59.332;18.244;2023-01-08T13:00:20;91.93;;;17.87;;
19788;SDS011;10054;59.332;18.244;2023-01-08T13:02:58;104.47;;;19.87;;
19788;SDS011;10054;59.332;18.244;2023-01-08T13:05:32;63.87;;;17.63;;
19788;SDS011;10054;59.332;18.244;2023-01-08T13:08:07;88.70;;;17.97;;
19788;SDS011;10054;59.332;18.244;2023-01-08T13:10:54;103.57;;;17.70;;
19788;SDS011;10054;59.332;18.244;2023-01-08T13:18:55;61.97;;;18.10;;
19788;SDS011;10054;59.332;18.244;2023-01-08T13:24:04;78.33;;;20.17;;
19788;SDS011;10054;59.332;18.244;2023-01-08T13:26:35;70.93;;;20.77;;
19788;SDS011;10054;59.332;18.244;2023-01-08T13:29:23;53.77;;;18.43;;
19788;SDS011;10054;59.332;18.244;2023-01-08T13:31:54;83.73;;;21.17;;
19788;SDS011;10054;59.332;18.244;2023-01-08T13:34:35;66.93;;;20.17;;
19788;SDS011;10054;59.332;18.244;2023-01-08T13:37:05;65.43;;;20.20;;
19788;SDS011;10054;59.332;18.244;2023-01-08T13:39:40;91.87;;;24.37;;
19788;SDS011;10054;59.332;18.244;2023-01-08T13:44:46;62.27;;;20.53;;
19788;SDS011;10054;59.332;18.244;2023-01-08T13:50:02;60.23;;;20.43;;
19788;SDS011;10054;59.332;18.244;2023-01-08T13:52:42;70.83;;;21.87;;
19788;SDS011;10054;59.332;18.244;2023-01-08T13:55:23;80.17;;;23.67;;
19788;SDS011;10054;59.332;18.244;2023-01-08T13:57:50;73.03;;;22.33;;
19788;SDS011;10054;59.332;18.244;2023-01-08T14:00:24;79.43;;;23.03;;
19788;SDS011;10054;59.332;18.244;2023-01-08T14:02:54;72.93;;;22.33;;
19788;SDS011;10054;59.332;18.244;2023-01-08T14:05:24;60.27;;;21.23;;
19788;SDS011;10054;59.332;18.244;2023-01-08T14:07:55;87.00;;;23.10;;
19788;SDS011;10054;59.332;18.244;2023-01-08T14:10:29;71.73;;;22.03;;
19788;SDS011;10054;59.332;18.244;2023-01-08T14:13:03;66.63;;;22.33;;
19788;SDS011;10054;59.332;18.244;2023-01-08T14:15:31;64.33;;;22.53;;
19788;SDS011;10054;59.332;18.244;2023-01-08T14:18:01;71.60;;;22.77;;
19788;SDS011;10054;59.332;18.244;2023-01-08T14:23:10;50.10;;;18.93;;
19788;SDS011;10054;59.332;18.244;2023-01-08T14:25:40;78.00;;;21.97;;
19788;SDS011;10054;59.332;18.244;2023-01-08T14:28:14;53.53;;;20.20;;
19788;SDS011;10054;59.332;18.244;2023-01-08T14:30:53;57.23;;;22.53;;
19788;SDS011;10054;59.332;18.244;2023-01-08T14:33:19;50.27;;;19.63;;
19788;SDS011;10054;59.332;18.244;2023-01-08T14:35:53;56.10;;;23.47;;
19788;SDS011;10054;59.332;18.244;2023-01-08T14:38:23;55.77;;;23.10;;
19788;SDS011;10054;59.332;18.244;2023-01-08T14:41:02;59.17;;;23.73;;
19788;SDS011;10054;59.332;18.244;2023-01-08T14:43:34;50.97;;;22.00;;
19788;SDS011;10054;59.332;18.244;2023-01-08T14:46:14;53.20;;;20.17;;
19788;SDS011;10054;59.332;18.244;2023-01-08T14:48:48;45.93;;;21.33;;
19788;SDS011;10054;59.332;18.244;2023-01-08T14:51:20;40.30;;;18.37;;
19788;SDS011;10054;59.332;18.244;2023-01-08T14:53:55;45.60;;;20.43;;
19788;SDS011;10054;59.332;18.244;2023-01-08T14:56:28;43.07;;;22.20;;
19788;SDS011;10054;59.332;18.244;2023-01-08T14:58:58;50.17;;;23.03;;
19788;SDS011;10054;59.332;18.244;2023-01-08T15:01:29;39.60;;;19.10;;
19788;SDS011;10054;59.332;18.244;2023-01-08T15:04:06;48.03;;;21.17;;
19788;SDS011;10054;59.332;18.244;2023-01-08T15:06:38;40.30;;;18.70;;
19788;SDS011;10054;59.332;18.244;2023-01-08T15:09:23;37.33;;;18.60;;
19788;SDS011;10054;59.332;18.244;2023-01-08T15:12:00;28.23;;;14.87;;
19788;SDS011;10054;59.332;18.244;2023-01-08T15:14:31;34.03;;;17.10;;
19788;SDS011;10054;59.332;18.244;2023-01-08T15:17:04;30.43;;;16.03;;
19788;SDS011;10054;59.332;18.244;2023-01-08T15:19:38;37.13;;;18.03;;
19788;SDS011;10054;59.332;18.244;2023-01-08T15:22:15;30.03;;;14.30;;
19788;SDS011;10054;59.332;18.244;2023-01-08T15:25:02;32.17;;;14.77;;
19788;SDS011;10054;59.332;18.244;2023-01-08T15:27:33;30.50;;;15.73;;
19788;SDS011;10054;59.332;18.244;2023-01-08T15:30:03;30.13;;;15.90;;
19788;SDS011;10054;59.332;18.244;2023-01-08T15:32:35;33.07;;;16.27;;
19788;SDS011;10054;59.332;18.244;2023-01-08T15:35:15;41.47;;;17.53;;
19788;SDS011;10054;59.332;18.244;2023-01-08T15:37:45;29.70;;;15.30;;
19788;SDS011;10054;59.332;18.244;2023-01-08T15:40:14;31.53;;;15.83;;
19788;SDS011;10054;59.332;18.244;2023-01-08T15:42:43;28.37;;;15.23;;
19788;SDS011;10054;59.332;18.244;2023-01-08T15:45:29;29.53;;;15.43;;
19788;SDS011;10054;59.332;18.244;2023-01-08T15:47:58;25.80;;;13.50;;
19788;SDS011;10054;59.332;18.244;2023-01-08T15:50:27;30.23;;;15.27;;
19788;SDS011;10054;59.332;18.244;2023-01-08T15:53:01;27.17;;;14.23;;
19788;SDS011;10054;59.332;18.244;2023-01-08T15:55:31;34.30;;;14.63;;
19788;SDS011;10054;59.332;18.244;2023-01-08T15:58:01;26.77;;;13.20;;
19788;SDS011;10054;59.332;18.244;2023-01-08T16:00:29;26.47;;;13.67;;